createdAt,value
2023-05-14T08:01:13.049Z,25.00
2023-05-14T08:02:13.112Z,25.00
2023-05-14T08:03:13.207Z,25.00
2023-05-14T08:04:13.218Z,25.00
2023-05-14T08:05:13.145Z,25.00
2023-05-14T08:06:13.174Z,25.00
2023-05-14T08:07:13.200Z,0.00
2023-05-14T08:08:13.233Z,0.00
2023-05-14T08:09:13.290Z,0.00
2023-05-14T08:10:13.318Z,0.00
2023-05-14T08:11:13.386Z,0.00
2023-05-14T08:12:13.334Z,0.00
2023-05-14T08:13:13.333Z,0.00
2023-05-14T08:14:13.349Z,0.00
2023-05-14T08:15:13.364Z,0.00
2023-05-14T08:16:13.375Z,0.00
2023-05-14T08:17:13.467Z,0.00
2023-05-14T08:18:13.526Z,0.00
2023-05-14T08:19:13.803Z,0.00
2023-05-14T08:20:13.596Z,0.00
2023-05-14T08:21:13.708Z,0.00
2023-05-14T08:22:13.731Z,0.00
2023-05-14T08:23:13.778Z,0.00
2023-05-14T08:24:13.842Z,0.00
2023-05-14T08:25:13.917Z,0.00
2023-05-14T08:26:13.959Z,0.00
2023-05-14T08:27:14.042Z,10.65
2023-05-14T08:28:14.055Z,24.53
2023-05-14T08:29:16.241Z,24.79
2023-05-14T08:30:14.354Z,25.00
2023-05-14T08:31:14.462Z,25.00
2023-05-14T08:32:22.734Z,25.46
2023-05-14T08:33:15.466Z,25.60
2023-05-14T08:34:14.448Z,19.16
2023-05-14T08:35:14.423Z,17.96
2023-05-14T08:36:14.414Z,11.89
2023-05-14T08:37:14.391Z,8.44
2023-05-14T08:38:14.393Z,25.59
2023-05-14T08:39:14.411Z,25.98
2023-05-14T08:40:14.409Z,25.00
2023-05-14T08:41:14.371Z,25.00
2023-05-14T08:42:14.351Z,27.45
2023-05-14T08:43:14.374Z,25.00
2023-05-14T08:44:14.429Z,28.67
2023-05-14T08:45:14.437Z,26.23
2023-05-14T08:46:14.501Z,27.90
2023-05-14T08:47:14.497Z,26.66
2023-05-14T08:48:14.677Z,27.88
2023-05-14T08:49:14.604Z,28.00
2023-05-14T08:50:14.612Z,27.72
2023-05-14T08:51:14.619Z,29.86
2023-05-14T08:52:14.700Z,28.41
2023-05-14T08:53:14.717Z,23.39
2023-05-14T08:54:14.782Z,29.60
2023-05-14T08:55:14.762Z,29.02
2023-05-14T08:56:14.817Z,30.97
2023-05-14T08:57:14.888Z,30.83
2023-05-14T08:58:14.871Z,30.47
2023-05-14T08:59:14.919Z,30.06
2023-05-14T09:00:14.925Z,31.22
2023-05-14T09:01:15.070Z,33.03
2023-05-14T09:02:15.088Z,29.18
2023-05-14T09:03:15.103Z,32.18
2023-05-14T09:04:15.177Z,25.56
2023-05-14T09:05:15.128Z,28.37
2023-05-14T09:06:15.150Z,32.82
2023-05-14T09:07:15.167Z,32.91
2023-05-14T09:08:15.215Z,28.94
2023-05-14T09:09:15.255Z,32.36
2023-05-14T09:10:15.282Z,32.29
2023-05-14T09:11:15.300Z,29.52
2023-05-14T09:12:15.352Z,31.39
2023-05-14T09:13:15.377Z,27.02
2023-05-14T09:14:15.372Z,29.92
2023-05-14T09:15:15.437Z,23.85
2023-05-14T09:16:15.470Z,33.80
2023-05-14T09:17:15.462Z,25.45
2023-05-14T09:18:15.509Z,33.63
2023-05-14T09:19:15.691Z,35.95
2023-05-14T09:20:15.568Z,31.65
2023-05-14T09:21:15.569Z,34.98
2023-05-14T09:22:15.621Z,34.93
2023-05-14T09:23:15.669Z,29.87
2023-05-14T09:24:15.640Z,37.18
2023-05-14T09:25:15.700Z,33.66
2023-05-14T09:26:15.700Z,35.70
2023-05-14T09:27:15.727Z,33.55
2023-05-14T09:28:15.796Z,35.19
2023-05-14T09:29:15.791Z,31.26
2023-05-14T09:30:15.810Z,38.10
2023-05-14T09:31:15.881Z,33.82
2023-05-14T09:32:15.843Z,29.63
2023-05-14T09:33:15.878Z,36.16
2023-05-14T09:34:15.909Z,30.59
2023-05-14T09:35:15.924Z,34.35
2023-05-14T09:36:15.953Z,36.91
2023-05-14T09:37:15.977Z,37.71
2023-05-14T09:38:15.981Z,35.13
2023-05-14T09:39:16.021Z,37.39
2023-05-14T09:40:16.044Z,38.32
2023-05-14T09:41:16.101Z,37.35
2023-05-14T09:42:16.088Z,35.86
2023-05-14T09:43:16.090Z,32.26
2023-05-14T09:44:16.125Z,33.42
2023-05-14T09:45:16.192Z,27.22
2023-05-14T09:46:16.169Z,36.77
2023-05-14T09:47:16.294Z,32.68
2023-05-14T09:48:16.276Z,33.51
2023-05-14T09:49:16.250Z,38.52
2023-05-14T09:50:16.266Z,34.39
2023-05-14T09:51:16.290Z,39.07
2023-05-14T09:52:16.354Z,33.78
2023-05-14T09:53:16.337Z,39.07
2023-05-14T09:54:16.337Z,33.56
2023-05-14T09:55:16.389Z,32.95
2023-05-14T09:56:16.424Z,38.89
2023-05-14T09:57:16.444Z,34.07
2023-05-14T09:58:16.451Z,37.05
2023-05-14T09:59:16.462Z,35.86
2023-05-14T10:00:16.483Z,36.50
2023-05-14T10:01:16.534Z,37.06
2023-05-14T10:02:16.529Z,34.71
2023-05-14T10:03:19.622Z,31.95
2023-05-14T10:04:16.607Z,35.14
2023-05-14T10:05:16.546Z,34.82
2023-05-14T10:06:16.547Z,36.78
2023-05-14T10:07:16.553Z,28.36
2023-05-14T10:08:16.493Z,33.00
2023-05-14T10:09:16.511Z,37.61
2023-05-14T10:10:16.502Z,29.04
2023-05-14T10:11:16.491Z,33.89
2023-05-14T10:12:16.471Z,28.27
2023-05-14T10:13:16.448Z,33.19
2023-05-14T10:14:16.484Z,30.52
2023-05-14T10:15:16.428Z,32.81
2023-05-14T10:16:16.524Z,29.60
2023-05-14T10:17:16.442Z,32.06
2023-05-14T10:18:16.465Z,33.75
2023-05-14T10:19:16.835Z,35.06
2023-05-14T10:20:16.419Z,35.33
2023-05-14T10:21:16.410Z,33.94
2023-05-14T10:22:16.421Z,32.32
2023-05-14T10:23:16.399Z,34.22
2023-05-14T10:24:16.435Z,29.77
2023-05-14T10:25:16.381Z,30.69
2023-05-14T10:26:16.407Z,35.68
2023-05-14T10:27:16.385Z,35.42
2023-05-14T10:28:16.337Z,34.63
2023-05-14T10:29:16.351Z,37.47
2023-05-14T10:30:16.339Z,36.54
2023-05-14T10:31:16.405Z,38.90
2023-05-14T10:32:16.321Z,32.37
2023-05-14T10:33:16.415Z,32.56
2023-05-14T10:34:16.319Z,27.78
2023-05-14T10:35:16.318Z,37.89
2023-05-14T10:36:16.285Z,33.16
2023-05-14T10:37:16.298Z,32.47
2023-05-14T10:38:16.306Z,37.02
2023-05-14T10:39:16.271Z,27.67
2023-05-14T10:40:16.286Z,28.85
2023-05-14T10:41:16.244Z,35.03
2023-05-14T10:42:16.266Z,36.58
2023-05-14T10:43:16.235Z,31.85
2023-05-14T10:44:16.244Z,35.00
2023-05-14T10:45:16.218Z,28.99
2023-05-14T10:46:16.253Z,35.15
2023-05-14T10:47:16.206Z,33.33
2023-05-14T10:48:16.325Z,38.31
2023-05-14T10:49:20.982Z,33.39
2023-05-14T10:50:17.226Z,33.55
2023-05-14T10:51:16.244Z,33.94
2023-05-14T10:52:16.179Z,34.15
2023-05-14T10:53:16.185Z,35.38
2023-05-14T10:54:16.181Z,32.35
2023-05-14T10:55:16.180Z,33.26
2023-05-14T10:56:16.170Z,33.55
2023-05-14T10:57:16.152Z,28.86
2023-05-14T10:58:16.127Z,36.65
2023-05-14T10:59:16.115Z,29.77
2023-05-14T11:00:16.121Z,33.27
2023-05-14T11:01:16.111Z,38.44
2023-05-14T11:02:16.170Z,33.31
2023-05-14T11:03:16.125Z,31.08
2023-05-14T11:04:16.190Z,31.71
2023-05-14T11:05:16.271Z,35.22
2023-05-14T11:06:16.148Z,31.52
2023-05-14T11:07:16.080Z,27.20
2023-05-14T11:08:16.063Z,34.55
2023-05-14T11:09:16.055Z,39.79
2023-05-14T11:10:16.048Z,36.45
2023-05-14T11:11:16.048Z,39.73
2023-05-14T11:12:16.016Z,29.41
2023-05-14T11:13:16.091Z,30.46
2023-05-14T11:14:16.050Z,37.20
2023-05-14T11:15:16.025Z,33.97
2023-05-14T11:16:23.448Z,37.34
2023-05-14T11:17:17.129Z,37.50
2023-05-14T11:18:16.028Z,37.44
2023-05-14T11:19:16.011Z,31.07
2023-05-14T11:20:16.017Z,32.31
2023-05-14T11:21:16.021Z,31.40
2023-05-14T11:22:15.967Z,31.64
2023-05-14T11:23:15.968Z,37.79
2023-05-14T11:24:15.988Z,38.35
2023-05-14T11:25:15.964Z,38.78
2023-05-14T11:26:15.965Z,34.70
2023-05-14T11:27:15.958Z,39.11
2023-05-14T11:28:15.917Z,27.47
2023-05-14T11:29:16.032Z,35.60
2023-05-14T11:30:15.919Z,28.99
2023-05-14T11:31:15.913Z,35.70
2023-05-14T11:32:15.897Z,32.38
2023-05-14T11:33:15.928Z,39.45
2023-05-14T11:34:15.890Z,33.23
2023-05-14T11:35:15.883Z,41.06
2023-05-14T11:36:15.845Z,42.17
2023-05-14T11:37:15.865Z,34.70
2023-05-14T11:38:15.853Z,31.68
2023-05-14T11:39:15.833Z,36.93
2023-05-14T11:40:15.840Z,34.21
2023-05-14T11:41:15.841Z,30.44
2023-05-14T11:42:15.836Z,38.29
2023-05-14T11:43:15.823Z,29.81
2023-05-14T11:44:15.790Z,34.52
2023-05-14T11:45:15.785Z,38.44
2023-05-14T11:46:15.863Z,38.87
2023-05-14T11:47:15.813Z,40.98
2023-05-14T11:48:15.870Z,36.99
2023-05-14T11:49:15.768Z,37.26
2023-05-14T11:50:15.822Z,36.74
2023-05-14T11:51:15.770Z,34.79
2023-05-14T11:52:15.774Z,35.80
2023-05-14T11:53:15.766Z,39.88
2023-05-14T11:54:15.734Z,39.66
2023-05-14T11:55:15.741Z,34.63
2023-05-14T11:56:15.748Z,41.48
2023-05-14T11:57:15.758Z,36.86
2023-05-14T11:58:15.757Z,35.62
2023-05-14T11:59:15.784Z,36.87
2023-05-14T12:00:15.783Z,37.56
2023-05-14T12:01:15.787Z,33.71
2023-05-14T12:02:15.832Z,35.72
2023-05-14T12:03:15.944Z,35.99
2023-05-14T12:04:15.892Z,37.57
2023-05-14T12:05:15.824Z,34.86
2023-05-14T12:06:15.848Z,32.50
2023-05-14T12:07:15.829Z,37.03
2023-05-14T12:08:15.863Z,33.88
2023-05-14T12:09:15.882Z,36.00
2023-05-14T12:10:15.924Z,38.45
2023-05-14T12:11:15.868Z,36.96
2023-05-14T12:12:15.905Z,39.99
2023-05-14T12:13:15.902Z,39.39
2023-05-14T12:14:15.903Z,30.12
2023-05-14T12:15:15.919Z,37.42
2023-05-14T12:16:15.988Z,35.80
2023-05-14T12:17:15.912Z,36.79
2023-05-14T12:18:23.918Z,33.62
2023-05-14T12:19:16.964Z,33.94
2023-05-14T12:20:15.928Z,34.53
2023-05-14T12:21:15.924Z,35.39
2023-05-14T12:22:15.911Z,37.50
2023-05-14T12:23:15.897Z,40.07
2023-05-14T12:24:15.880Z,29.96
2023-05-14T12:25:15.886Z,26.97
2023-05-14T12:26:15.882Z,37.58
2023-05-14T12:27:15.866Z,37.64
2023-05-14T12:28:15.910Z,32.26
2023-05-14T12:29:15.876Z,34.62
2023-05-14T12:30:21.946Z,32.12
2023-05-14T12:31:16.883Z,32.53
2023-05-14T12:32:15.829Z,32.88
2023-05-14T12:33:15.811Z,32.14
2023-05-14T12:34:15.799Z,33.72
2023-05-14T12:35:15.801Z,31.52
2023-05-14T12:36:21.977Z,36.82
2023-05-14T12:37:16.794Z,36.95
2023-05-14T12:38:15.780Z,29.84
2023-05-14T12:39:15.769Z,27.46
2023-05-14T12:40:15.783Z,36.31
2023-05-14T12:41:15.792Z,38.13
2023-05-14T12:42:15.754Z,28.18
2023-05-14T12:43:15.761Z,33.35
2023-05-14T12:44:15.749Z,33.76
2023-05-14T12:45:15.736Z,35.90
2023-05-14T12:46:15.719Z,32.43
2023-05-14T12:47:15.791Z,31.03
2023-05-14T12:48:15.756Z,32.53
2023-05-14T12:49:15.715Z,27.08
2023-05-14T12:50:15.669Z,31.69
2023-05-14T12:51:15.692Z,23.00
2023-05-14T12:52:22.754Z,36.86
2023-05-14T12:53:16.712Z,36.95
2023-05-14T12:54:15.664Z,35.19
2023-05-14T12:55:15.666Z,33.75
2023-05-14T12:56:15.652Z,37.61
2023-05-14T12:57:15.664Z,37.86
2023-05-14T12:58:15.637Z,32.78
2023-05-14T12:59:15.601Z,37.10
2023-05-14T13:00:15.698Z,38.37
